Time;durP1;ratioP1;P1;durP2;ratioP2;P2;SDS_P1;SDS_P2;PMS_P1;PMS_P2;Temp;Humidity;BMP_temperature;BMP_pressure;BME280_temperature;BME280_humidity;BME280_pressure;Samples;Min_cycle;Max_cycle;Signal;HPM_P1;HPM_P2
2023/06/18 00:00:08;;;;;;;21.10;14.75;;;19.00;93.00;;;;;;5028308;28;20053;-63
2023/06/18 00:02:34;;;;;;;20.90;15.50;;;19.00;93.20;;;;;;5034151;28;20502;-63
2023/06/18 00:05:00;;;;;;;19.45;14.73;;;18.90;93.20;;;;;;5031656;28;20093;-64
2023/06/18 00:07:25;;;;;;;21.88;16.05;;;18.90;93.30;;;;;;5048040;28;20431;-63
2023/06/18 00:09:51;;;;;;;20.50;15.98;;;18.90;93.40;;;;;;5043016;28;20039;-62
2023/06/18 00:12:16;;;;;;;22.98;15.80;;;18.90;93.60;;;;;;5026088;28;20531;-62
2023/06/18 00:14:42;;;;;;;23.67;16.63;;;18.90;93.70;;;;;;5043748;28;20049;-63
2023/06/18 00:17:08;;;;;;;22.08;16.75;;;18.90;93.80;;;;;;5052697;28;20044;-63
2023/06/18 00:19:33;;;;;;;20.98;16.13;;;18.90;93.90;;;;;;5026489;28;20041;-62
2023/06/18 00:21:59;;;;;;;21.35;15.13;;;18.80;94.00;;;;;;5045114;28;20488;-62
2023/06/18 00:24:25;;;;;;;21.73;16.05;;;18.80;94.10;;;;;;5038750;28;20036;-64
2023/06/18 00:26:51;;;;;;;20.02;16.33;;;18.80;94.30;;;;;;5048809;28;20076;-63
2023/06/18 00:29:16;;;;;;;24.13;16.73;;;18.70;94.40;;;;;;5048355;28;20061;-65
2023/06/18 00:31:42;;;;;;;22.67;16.70;;;18.80;94.50;;;;;;5045004;28;20099;-62
2023/06/18 00:34:07;;;;;;;20.30;16.40;;;18.70;94.70;;;;;;5045354;28;20041;-63
2023/06/18 00:36:33;;;;;;;22.00;16.52;;;18.70;94.80;;;;;;5031255;28;20033;-63
2023/06/18 00:39:03;;;;;;;22.17;16.00;;;18.60;94.90;;;;;;5052018;28;20064;-63
2023/06/18 00:41:30;;;;;;;21.48;16.25;;;18.60;95.10;;;;;;5045920;28;20086;-63
2023/06/18 00:43:57;;;;;;;21.05;16.20;;;18.60;95.20;;;;;;5052567;28;20090;-63
2023/06/18 00:46:26;;;;;;;20.50;15.80;;;18.60;95.30;;;;;;5052966;28;20029;-63
2023/06/18 00:48:55;;;;;;;22.38;15.95;;;18.50;95.50;;;;;;5030668;28;20040;-63
2023/06/18 00:51:22;;;;;;;20.08;16.33;;;18.50;95.60;;;;;;5053090;28;20612;-63
2023/06/18 00:53:49;;;;;;;22.83;16.67;;;18.50;95.70;;;;;;5050446;28;20033;-62
2023/06/18 00:56:15;;;;;;;21.83;16.38;;;18.50;95.90;;;;;;5052332;28;20548;-63
2023/06/18 00:58:41;;;;;;;22.33;16.33;;;18.40;96.00;;;;;;5052494;28;20380;-65
2023/06/18 01:01:10;;;;;;;24.02;16.63;;;18.40;96.20;;;;;;5036482;28;20040;-66
2023/06/18 01:03:35;;;;;;;23.73;17.42;;;18.40;96.30;;;;;;5048059;28;20048;-62
2023/06/18 01:06:02;;;;;;;20.90;16.30;;;18.30;96.40;;;;;;5045489;28;20033;-66
2023/06/18 01:08:33;;;;;;;22.33;16.88;;;18.30;96.60;;;;;;5020618;28;20116;-65
2023/06/18 01:11:01;;;;;;;25.88;17.60;;;18.30;96.80;;;;;;5036230;28;20049;-65
2023/06/18 01:13:32;;;;;;;25.85;17.58;;;18.20;96.90;;;;;;5042233;28;20051;-65
2023/06/18 01:16:03;;;;;;;22.77;17.05;;;18.10;96.90;;;;;;5041308;28;20041;-64
2023/06/18 01:18:34;;;;;;;25.65;18.23;;;18.00;96.80;;;;;;5042971;28;20039;-65
2023/06/18 01:21:09;;;;;;;23.10;16.55;;;17.90;96.80;;;;;;5048189;28;20450;-65
2023/06/18 01:24:08;;;;;;;23.55;17.15;;;17.90;96.90;;;;;;5023679;28;20052;-65
2023/06/18 01:26:35;;;;;;;24.63;18.10;;;17.90;97.00;;;;;;5022838;28;20047;-62
2023/06/18 01:29:01;;;;;;;21.88;17.27;;;17.80;97.00;;;;;;5045285;28;20044;-65
2023/06/18 01:31:36;;;;;;;25.45;17.90;;;17.80;97.20;;;;;;5048716;28;20083;-65
2023/06/18 01:34:04;;;;;;;27.17;19.13;;;17.80;97.50;;;;;;5050311;28;20407;-65
2023/06/18 01:36:35;;;;;;;23.58;17.80;;;17.70;97.50;;;;;;5041698;28;20038;-65
2023/06/18 01:40:06;;;;;;;24.48;17.73;;;17.80;97.80;;;;;;5050006;28;20044;-65
2023/06/18 01:42:36;;;;;;;24.23;18.05;;;17.70;98.00;;;;;;4962268;28;20091;-66
2023/06/18 01:45:21;;;;;;;27.90;18.92;;;17.70;98.00;;;;;;4970199;28;20043;-65
2023/06/18 01:47:48;;;;;;;24.67;18.73;;;17.60;98.20;;;;;;4994134;28;20057;-65
2023/06/18 01:50:17;;;;;;;24.63;19.45;;;17.60;98.30;;;;;;5043628;28;20080;-65
2023/06/18 01:52:44;;;;;;;24.00;18.70;;;17.60;98.50;;;;;;5051278;28;20043;-65
2023/06/18 01:55:11;;;;;;;28.08;19.27;;;17.60;98.60;;;;;;5040006;28;20037;-65
2023/06/18 01:57:37;;;;;;;25.45;18.88;;;17.60;98.70;;;;;;5034858;28;20045;-66
2023/06/18 02:00:04;;;;;;;25.48;19.05;;;17.60;98.90;;;;;;5048757;28;20044;-65
2023/06/18 02:02:30;;;;;;;25.20;19.40;;;17.50;99.00;;;;;;5031738;28;20116;-65
2023/06/18 02:04:56;;;;;;;23.85;18.80;;;17.60;99.20;;;;;;5045495;28;20120;-65
2023/06/18 02:07:22;;;;;;;24.45;18.98;;;17.50;99.30;;;;;;5039506;28;20455;-64
2023/06/18 02:09:47;;;;;;;27.35;18.73;;;17.60;99.50;;;;;;5041823;28;20112;-64
2023/06/18 02:12:13;;;;;;;26.05;19.27;;;17.50;99.60;;;;;;5032544;28;20033;-63
2023/06/18 02:14:39;;;;;;;25.00;18.83;;;17.50;99.80;;;;;;5045775;28;20041;-64
2023/06/18 02:17:05;;;;;;;24.42;19.55;;;17.50;99.90;;;;;;5033108;28;20063;-63
2023/06/18 02:19:31;;;;;;;25.33;19.27;;;17.50;99.90;;;;;;5042945;28;20167;-64
2023/06/18 02:22:03;;;;;;;27.67;18.92;;;17.50;99.90;;;;;;5042823;28;20136;-63
2023/06/18 02:24:31;;;;;;;25.95;19.85;;;17.40;99.90;;;;;;5030354;28;20041;-62
2023/06/18 02:26:56;;;;;;;24.70;20.02;;;17.40;99.90;;;;;;5042499;28;20146;-62
2023/06/18 02:29:22;;;;;;;25.15;19.40;;;17.40;99.90;;;;;;5030163;28;20159;-63
2023/06/18 02:31:47;;;;;;;25.73;20.13;;;17.40;99.90;;;;;;5023526;28;20048;-63
2023/06/18 02:34:15;;;;;;;25.67;19.70;;;17.40;99.90;;;;;;5035693;28;20075;-64
2023/06/18 02:36:40;;;;;;;24.45;19.83;;;17.40;99.90;;;;;;5030899;28;20145;-64
2023/06/18 02:39:06;;;;;;;26.02;19.85;;;17.40;99.90;;;;;;5047764;28;20252;-64
2023/06/18 02:41:31;;;;;;;26.48;19.33;;;17.30;99.90;;;;;;4999319;28;20551;-63
2023/06/18 02:43:57;;;;;;;28.42;20.38;;;17.30;99.90;;;;;;5047723;28;20047;-63
2023/06/18 02:46:22;;;;;;;27.58;21.30;;;17.30;99.90;;;;;;5041891;28;20040;-63
2023/06/18 02:48:48;;;;;;;26.75;20.05;;;17.20;99.90;;;;;;5020935;28;20045;-65
2023/06/18 02:51:14;;;;;;;26.05;19.60;;;17.20;99.90;;;;;;5046541;28;20093;-63
2023/06/18 02:53:39;;;;;;;26.15;18.92;;;17.20;99.90;;;;;;5041376;28;20037;-63
2023/06/18 02:56:05;;;;;;;27.17;20.08;;;17.10;99.90;;;;;;5060698;22;20021;-65
2023/06/18 02:58:32;;;;;;;24.02;19.25;;;17.10;99.90;;;;;;5028614;28;20049;-64
2023/06/18 03:00:59;;;;;;;25.92;19.88;;;17.10;99.90;;;;;;4997108;28;20046;-64
2023/06/18 03:03:26;;;;;;;29.05;19.38;;;17.10;99.90;;;;;;5000234;28;20129;-63
2023/06/18 03:05:52;;;;;;;24.92;19.58;;;17.10;99.90;;;;;;4996988;28;20132;-64
2023/06/18 03:08:18;;;;;;;25.13;19.52;;;17.10;99.90;;;;;;5012646;28;20060;-64
2023/06/18 03:10:44;;;;;;;24.67;19.65;;;17.10;99.90;;;;;;5005236;28;20528;-61
2023/06/18 03:13:10;;;;;;;26.85;20.40;;;17.10;99.90;;;;;;5021293;28;20033;-64
2023/06/18 03:15:35;;;;;;;29.13;20.67;;;17.10;99.90;;;;;;5028924;28;20052;-64
2023/06/18 03:18:01;;;;;;;26.33;20.13;;;17.10;99.90;;;;;;5029914;28;20120;-63
2023/06/18 03:20:27;;;;;;;30.00;21.27;;;17.10;99.90;;;;;;5028110;28;20033;-63
2023/06/18 03:22:53;;;;;;;26.45;20.02;;;17.20;99.90;;;;;;5030058;28;20129;-64
2023/06/18 03:25:19;;;;;;;30.08;21.05;;;17.20;99.90;;;;;;5025481;28;20030;-64
2023/06/18 03:27:46;;;;;;;26.38;20.00;;;17.20;99.90;;;;;;5029432;28;20628;-63
2023/06/18 03:30:12;;;;;;;26.67;19.88;;;17.20;99.90;;;;;;5024227;28;20033;-62
2023/06/18 03:32:37;;;;;;;27.15;19.60;;;17.20;99.90;;;;;;5025557;28;20037;-61
2023/06/18 03:35:04;;;;;;;27.55;20.77;;;17.20;99.90;;;;;;5026215;28;20499;-64
2023/06/18 03:37:32;;;;;;;29.02;20.45;;;17.20;99.90;;;;;;5028103;28;20036;-62
2023/06/18 03:39:58;;;;;;;26.73;19.67;;;17.20;99.90;;;;;;5010114;28;20475;-63
2023/06/18 03:42:24;;;;;;;27.15;20.83;;;17.20;99.90;;;;;;5025390;28;20056;-62
2023/06/18 03:44:50;;;;;;;27.90;20.60;;;17.20;99.90;;;;;;5023879;28;20557;-63
2023/06/18 03:47:16;;;;;;;28.27;20.98;;;17.20;99.90;;;;;;5029469;28;20034;-61
2023/06/18 03:49:42;;;;;;;28.08;20.13;;;17.20;99.90;;;;;;5011829;28;20044;-63
2023/06/18 03:52:08;;;;;;;26.70;20.75;;;17.30;99.90;;;;;;5023492;28;20030;-63
2023/06/18 03:54:33;;;;;;;27.05;20.60;;;17.30;99.90;;;;;;5028105;28;20037;-64
2023/06/18 03:56:59;;;;;;;29.33;20.95;;;17.30;99.90;;;;;;5009234;28;20087;-63
2023/06/18 03:59:24;;;;;;;28.20;21.08;;;17.30;99.90;;;;;;5024526;28;20037;-63
2023/06/18 04:01:51;;;;;;;28.05;20.63;;;17.30;99.90;;;;;;5005366;28;20484;-62
2023/06/18 04:04:17;;;;;;;29.83;20.83;;;17.40;99.90;;;;;;5025040;28;20124;-63
2023/06/18 04:06:43;;;;;;;30.98;21.70;;;17.40;99.90;;;;;;5008915;28;20034;-63
2023/06/18 04:09:10;;;;;;;30.58;20.95;;;17.40;99.90;;;;;;5024505;28;20483;-61
2023/06/18 04:11:38;;;;;;;28.80;20.75;;;17.50;99.90;;;;;;5029356;28;20514;-64
2023/06/18 04:14:04;;;;;;;26.23;20.20;;;17.50;99.90;;;;;;5028805;28;20088;-64
2023/06/18 04:16:30;;;;;;;27.17;20.25;;;17.50;99.90;;;;;;5007792;28;20056;-64
2023/06/18 04:18:55;;;;;;;32.65;21.55;;;17.50;99.90;;;;;;5012001;28;20041;-64
2023/06/18 04:21:21;;;;;;;26.40;19.65;;;17.60;99.90;;;;;;5026263;28;20038;-64
2023/06/18 04:23:47;;;;;;;30.23;20.75;;;17.60;99.90;;;;;;5024372;28;20053;-60
2023/06/18 04:26:12;;;;;;;29.08;20.40;;;17.60;99.90;;;;;;4994067;28;20403;-64
2023/06/18 04:28:38;;;;;;;28.65;20.92;;;17.70;99.90;;;;;;4992247;28;20038;-64
2023/06/18 04:31:04;;;;;;;28.65;20.67;;;17.60;99.90;;;;;;5010424;28;20190;-64
2023/06/18 04:33:29;;;;;;;29.23;20.73;;;17.70;99.90;;;;;;5011092;28;20041;-63
2023/06/18 04:35:55;;;;;;;29.63;21.15;;;17.70;99.90;;;;;;5029240;28;20492;-64
2023/06/18 04:38:23;;;;;;;27.90;21.02;;;17.70;99.90;;;;;;5010181;28;20041;-64
2023/06/18 04:40:49;;;;;;;29.33;20.15;;;17.70;99.90;;;;;;5012581;28;20037;-64
2023/06/18 04:43:17;;;;;;;30.02;21.20;;;17.70;99.90;;;;;;5015377;28;20044;-64
2023/06/18 04:45:44;;;;;;;29.08;20.65;;;17.70;99.90;;;;;;5032762;28;20048;-64
2023/06/18 04:48:10;;;;;;;29.52;21.42;;;17.70;99.90;;;;;;5032664;28;20458;-64
2023/06/18 04:50:35;;;;;;;29.67;21.15;;;17.70;99.90;;;;;;5032846;28;20124;-63
2023/06/18 04:53:01;;;;;;;28.50;21.17;;;17.80;99.90;;;;;;5032543;28;20046;-64
2023/06/18 04:55:27;;;;;;;28.67;21.80;;;17.80;99.90;;;;;;5030117;28;20064;-64
2023/06/18 04:57:53;;;;;;;26.15;20.42;;;17.80;99.90;;;;;;5030345;28;20491;-64
2023/06/18 05:00:20;;;;;;;26.88;21.13;;;17.80;99.90;;;;;;5025441;28;20457;-64
2023/06/18 05:02:45;;;;;;;31.05;21.30;;;17.90;99.90;;;;;;5014962;28;20096;-64
2023/06/18 05:05:11;;;;;;;31.50;22.25;;;18.00;99.90;;;;;;5025241;28;20033;-64
2023/06/18 05:07:37;;;;;;;33.55;23.98;;;18.00;99.90;;;;;;5032035;28;20044;-64
2023/06/18 05:10:03;;;;;;;30.55;22.02;;;18.10;99.90;;;;;;5022552;28;20069;-60
2023/06/18 05:12:28;;;;;;;29.60;21.42;;;18.10;99.90;;;;;;5031399;28;20048;-63
2023/06/18 05:14:54;;;;;;;29.73;22.52;;;18.10;99.90;;;;;;5028440;28;20042;-61
2023/06/18 05:17:19;;;;;;;30.88;21.27;;;18.20;99.90;;;;;;5025995;28;20034;-64
2023/06/18 05:19:45;;;;;;;31.05;22.20;;;18.20;99.90;;;;;;5014086;28;20037;-64
2023/06/18 05:22:11;;;;;;;28.63;22.55;;;18.30;99.90;;;;;;5031071;28;20515;-64
2023/06/18 05:24:36;;;;;;;27.25;22.15;;;18.40;99.90;;;;;;5014248;28;20080;-62
2023/06/18 05:27:02;;;;;;;30.63;23.00;;;18.40;99.90;;;;;;5007258;28;20488;-64
2023/06/18 05:29:27;;;;;;;30.77;21.98;;;18.50;99.90;;;;;;5022760;28;20036;-64
2023/06/18 05:31:53;;;;;;;36.20;23.17;;;18.60;99.90;;;;;;5024391;28;20472;-64
2023/06/18 05:34:19;;;;;;;28.10;21.00;;;18.70;99.90;;;;;;5007498;28;20044;-63
2023/06/18 05:36:44;;;;;;;29.70;21.85;;;18.70;99.90;;;;;;5022284;28;20056;-62
2023/06/18 05:39:10;;;;;;;29.30;21.80;;;18.80;99.90;;;;;;5023692;28;20045;-64
2023/06/18 05:41:35;;;;;;;30.08;21.48;;;18.80;99.90;;;;;;5028224;28;20491;-64
2023/06/18 05:44:01;;;;;;;32.50;22.50;;;18.90;99.90;;;;;;5006945;28;20044;-63
2023/06/18 05:46:27;;;;;;;29.77;21.95;;;19.00;99.90;;;;;;5028108;28;20492;-61
2023/06/18 05:48:53;;;;;;;30.95;21.42;;;19.00;99.90;;;;;;5031743;28;20034;-64
2023/06/18 05:51:18;;;;;;;30.77;21.73;;;19.00;99.90;;;;;;5022262;28;20045;-64
2023/06/18 05:53:44;;;;;;;28.77;20.52;;;19.10;99.90;;;;;;5013159;28;20416;-64
2023/06/18 05:56:09;;;;;;;30.80;21.88;;;19.10;99.90;;;;;;5024365;28;20037;-63
2023/06/18 05:58:36;;;;;;;28.88;21.63;;;19.20;99.90;;;;;;5030359;28;20045;-64
2023/06/18 06:01:01;;;;;;;29.23;21.10;;;19.20;99.90;;;;;;5028731;28;20037;-64
2023/06/18 06:03:27;;;;;;;31.00;21.58;;;19.30;99.90;;;;;;5024053;28;20033;-64
2023/06/18 06:05:53;;;;;;;33.60;21.90;;;19.30;99.90;;;;;;5013304;28;20046;-64
2023/06/18 06:08:18;;;;;;;29.98;20.88;;;19.30;99.90;;;;;;5009875;28;20041;-64
2023/06/18 06:10:44;;;;;;;26.10;20.20;;;19.40;99.90;;;;;;5025286;28;20052;-60
2023/06/18 06:13:10;;;;;;;27.92;20.15;;;19.50;99.90;;;;;;5027785;28;20037;-62
2023/06/18 06:15:36;;;;;;;27.90;20.83;;;19.50;99.90;;;;;;5027746;28;20538;-63
2023/06/18 06:18:02;;;;;;;28.75;20.40;;;19.50;99.90;;;;;;4993448;28;20033;-64
2023/06/18 06:20:28;;;;;;;26.90;19.15;;;19.60;99.90;;;;;;5027700;28;20160;-61
2023/06/18 06:22:53;;;;;;;28.20;19.55;;;19.60;99.90;;;;;;5009404;28;20480;-62
2023/06/18 06:25:19;;;;;;;27.50;19.67;;;19.70;99.90;;;;;;5027104;28;20083;-64
2023/06/18 06:27:45;;;;;;;28.42;20.13;;;19.70;99.90;;;;;;5008706;28;20041;-63
2023/06/18 06:30:11;;;;;;;28.10;19.67;;;19.80;99.90;;;;;;5030557;28;20037;-61
2023/06/18 06:32:36;;;;;;;28.10;19.80;;;19.90;99.90;;;;;;5030834;28;20971;-62
2023/06/18 06:35:05;;;;;;;26.17;19.13;;;19.90;99.90;;;;;;5004064;28;20045;-64
2023/06/18 06:37:32;;;;;;;28.90;20.55;;;19.90;99.90;;;;;;5006334;28;20547;-63
2023/06/18 06:39:58;;;;;;;25.70;18.77;;;20.00;99.90;;;;;;5027661;28;20398;-64
2023/06/18 06:42:23;;;;;;;27.58;19.17;;;20.10;99.90;;;;;;5001822;28;20041;-64
2023/06/18 06:44:49;;;;;;;27.73;19.85;;;20.20;99.90;;;;;;5018519;28;20038;-64
2023/06/18 06:47:15;;;;;;;26.33;19.27;;;20.20;99.90;;;;;;5022167;28;20042;-62
2023/06/18 06:49:41;;;;;;;24.98;19.13;;;20.30;99.90;;;;;;5025107;28;20037;-61
2023/06/18 06:52:06;;;;;;;25.55;19.42;;;20.40;99.90;;;;;;5027639;28;20037;-64
2023/06/18 06:54:32;;;;;;;26.30;19.27;;;20.40;99.90;;;;;;5020240;28;20038;-64
2023/06/18 06:56:58;;;;;;;26.98;18.88;;;20.50;99.90;;;;;;5027599;28;20052;-64
2023/06/18 06:59:23;;;;;;;23.67;17.90;;;20.50;99.90;;;;;;5004900;28;20046;-64
2023/06/18 07:01:49;;;;;;;23.27;17.85;;;20.60;99.90;;;;;;5025456;28;20025;-62
2023/06/18 07:04:15;;;;;;;24.23;19.38;;;20.50;99.90;;;;;;5021092;28;20041;-64
2023/06/18 07:06:40;;;;;;;27.20;20.13;;;20.60;99.90;;;;;;5018764;28;20464;-64
2023/06/18 07:09:07;;;;;;;25.63;18.25;;;20.50;99.90;;;;;;5004895;28;20065;-64
2023/06/18 07:11:33;;;;;;;25.77;18.98;;;20.50;99.90;;;;;;5021711;28;20110;-64
2023/06/18 07:14:00;;;;;;;29.05;18.75;;;20.50;99.90;;;;;;5028765;28;20029;-64
2023/06/18 07:16:25;;;;;;;24.88;19.98;;;20.50;99.90;;;;;;5029729;28;20026;-64
2023/06/18 07:18:51;;;;;;;25.75;19.65;;;20.60;99.90;;;;;;5003922;28;20049;-64
2023/06/18 07:21:17;;;;;;;25.58;18.90;;;20.70;99.90;;;;;;5027791;28;20049;-64
2023/06/18 07:23:43;;;;;;;28.92;19.17;;;20.70;99.90;;;;;;5027603;28;20049;-64
2023/06/18 07:26:08;;;;;;;24.75;18.55;;;20.80;99.90;;;;;;5009769;28;20395;-64
2023/06/18 07:28:34;;;;;;;27.17;20.58;;;20.90;99.90;;;;;;5008550;28;20068;-64
2023/06/18 07:31:00;;;;;;;27.10;19.55;;;21.00;99.90;;;;;;5022580;28;20033;-64
2023/06/18 07:33:25;;;;;;;26.23;19.52;;;21.20;99.90;;;;;;5030112;28;20572;-64
2023/06/18 07:35:51;;;;;;;26.40;19.10;;;21.40;99.90;;;;;;5027825;28;20567;-65
2023/06/18 07:38:17;;;;;;;25.83;18.88;;;21.50;99.90;;;;;;5008058;28;20052;-64
2023/06/18 07:40:42;;;;;;;26.10;17.48;;;21.70;99.90;;;;;;5024605;28;20037;-63
2023/06/18 07:43:09;;;;;;;22.50;17.52;;;21.80;99.90;;;;;;5026919;28;20037;-61
2023/06/18 07:45:35;;;;;;;21.65;16.58;;;21.90;99.90;;;;;;5026462;28;20779;-64
2023/06/18 07:48:01;;;;;;;23.20;17.40;;;21.90;99.90;;;;;;5009598;28;20041;-64
2023/06/18 07:50:27;;;;;;;19.67;16.85;;;22.20;99.90;;;;;;5028248;28;20037;-64
2023/06/18 07:52:53;;;;;;;23.33;17.65;;;22.30;99.90;;;;;;5025968;28;20034;-64
2023/06/18 07:55:18;;;;;;;24.42;17.15;;;22.40;99.90;;;;;;5025718;28;20847;-64
2023/06/18 07:57:44;;;;;;;21.92;16.00;;;22.40;99.90;;;;;;5010445;28;20046;-64
2023/06/18 08:00:10;;;;;;;20.83;15.60;;;22.50;99.90;;;;;;5024761;28;20037;-65
2023/06/18 08:02:36;;;;;;;21.23;15.80;;;22.60;99.90;;;;;;5029390;28;20041;-64
2023/06/18 08:05:02;;;;;;;20.85;13.98;;;22.70;99.90;;;;;;5021767;28;20084;-64
2023/06/18 08:07:28;;;;;;;21.02;16.02;;;22.80;99.90;;;;;;5028446;28;20439;-64
2023/06/18 08:09:53;;;;;;;16.67;14.50;;;22.90;99.90;;;;;;5029247;28;20045;-64
2023/06/18 08:12:19;;;;;;;18.45;14.25;;;23.00;99.90;;;;;;5012048;28;20034;-62
2023/06/18 08:14:46;;;;;;;16.85;13.77;;;23.10;99.90;;;;;;5029392;28;20045;-64
2023/06/18 08:17:15;;;;;;;21.58;14.60;;;23.20;99.90;;;;;;5030958;28;20045;-64
2023/06/18 08:19:44;;;;;;;16.17;12.82;;;23.30;99.80;;;;;;5030631;28;20042;-61
2023/06/18 08:22:17;;;;;;;17.92;13.85;;;23.40;99.60;;;;;;5012335;28;20472;-64
2023/06/18 08:24:43;;;;;;;20.50;13.98;;;23.50;99.20;;;;;;5015587;28;20511;-65
2023/06/18 08:27:09;;;;;;;15.90;12.52;;;23.50;98.90;;;;;;5015338;28;20065;-65
2023/06/18 08:29:35;;;;;;;16.38;12.52;;;23.60;99.00;;;;;;5032083;28;20061;-64
2023/06/18 08:32:04;;;;;;;16.67;11.95;;;23.70;98.70;;;;;;5034042;28;20103;-64
2023/06/18 08:34:32;;;;;;;15.40;11.63;;;23.80;98.30;;;;;;5033343;28;20037;-63
2023/06/18 08:36:57;;;;;;;15.65;12.13;;;23.90;98.20;;;;;;4996166;28;20045;-64
2023/06/18 08:39:23;;;;;;;18.58;12.13;;;24.00;97.90;;;;;;5033398;28;20045;-65
2023/06/18 08:41:49;;;;;;;13.60;11.00;;;24.10;97.50;;;;;;4998655;28;20045;-64
2023/06/18 08:44:15;;;;;;;15.40;11.48;;;24.30;96.80;;;;;;5015298;28;20042;-64
2023/06/18 08:46:43;;;;;;;13.55;10.85;;;24.50;96.40;;;;;;5032813;28;20035;-64
2023/06/18 08:49:09;;;;;;;17.08;10.63;;;24.70;96.10;;;;;;5033395;28;20033;-62
2023/06/18 08:51:38;;;;;;;12.93;10.52;;;25.00;95.80;;;;;;5032453;28;20120;-64
2023/06/18 08:54:16;;;;;;;13.98;10.15;;;25.20;95.30;;;;;;5007827;28;20046;-64
2023/06/18 08:56:47;;;;;;;12.50;9.77;;;25.30;94.10;;;;;;5046921;22;20077;-63
2023/06/18 08:59:13;;;;;;;13.10;9.55;;;25.40;94.00;;;;;;5031473;28;20029;-63
2023/06/18 09:01:41;;;;;;;13.52;9.18;;;25.60;93.60;;;;;;5008805;28;20046;-63
2023/06/18 09:04:07;;;;;;;11.82;9.25;;;25.70;93.40;;;;;;5024467;28;20041;-63
2023/06/18 09:06:33;;;;;;;11.00;8.75;;;26.00;92.80;;;;;;5024068;28;20044;-63
2023/06/18 09:09:00;;;;;;;12.63;9.13;;;26.00;92.00;;;;;;5027205;28;20036;-63
2023/06/18 09:11:26;;;;;;;10.65;8.85;;;26.10;91.70;;;;;;5016160;28;20042;-63
2023/06/18 09:13:52;;;;;;;11.75;9.77;;;26.10;91.30;;;;;;5013771;28;20044;-63
2023/06/18 09:16:18;;;;;;;12.18;9.35;;;26.20;91.10;;;;;;5021050;28;20037;-64
2023/06/18 09:18:44;;;;;;;11.68;9.52;;;26.20;90.40;;;;;;5021029;28;20120;-63
2023/06/18 09:21:10;;;;;;;10.73;8.52;;;26.20;90.20;;;;;;5020687;28;20506;-63
2023/06/18 09:23:36;;;;;;;12.43;8.73;;;26.20;89.60;;;;;;5021018;28;20117;-63
2023/06/18 09:26:01;;;;;;;17.33;9.32;;;26.30;90.00;;;;;;5017120;28;20076;-63
2023/06/18 09:28:28;;;;;;;11.02;9.02;;;26.30;89.90;;;;;;5025788;28;20038;-63
2023/06/18 09:30:58;;;;;;;10.05;8.38;;;26.40;89.20;;;;;;5027813;28;20044;-62
2023/06/18 09:33:36;;;;;;;12.88;8.85;;;26.30;85.90;;;;;;5026574;28;20055;-60
2023/06/18 09:36:08;;;;;;;11.30;8.40;;;26.30;85.40;;;;;;5031247;28;20129;-64
2023/06/18 09:38:39;;;;;;;9.27;7.63;;;26.30;84.50;;;;;;5024734;28;20193;-63
2023/06/18 09:41:13;;;;;;;10.20;8.27;;;26.20;84.90;;;;;;5028400;28;20046;-63
2023/06/18 09:43:43;;;;;;;11.38;8.25;;;26.20;84.10;;;;;;5030452;28;20069;-64
2023/06/18 09:46:09;;;;;;;12.32;8.23;;;26.20;84.30;;;;;;5017730;28;20084;-63
2023/06/18 09:48:36;;;;;;;9.43;7.93;;;26.20;83.50;;;;;;5025476;28;20467;-63
2023/06/18 09:51:03;;;;;;;10.70;8.15;;;26.30;83.60;;;;;;5012616;28;20052;-63
2023/06/18 09:53:29;;;;;;;10.40;8.10;;;26.40;82.90;;;;;;5022553;28;20521;-63
2023/06/18 09:56:10;;;;;;;13.48;8.48;;;26.40;83.00;;;;;;5010554;28;20049;-63
2023/06/18 09:58:48;;;;;;;9.80;7.85;;;26.40;82.40;;;;;;5024137;28;20034;-61
2023/06/18 10:01:15;;;;;;;10.65;8.50;;;26.50;82.70;;;;;;5029501;28;20491;-62
2023/06/18 10:03:43;;;;;;;9.27;7.70;;;26.60;82.10;;;;;;5021919;28;20133;-63
2023/06/18 10:06:17;;;;;;;11.95;8.52;;;26.60;81.00;;;;;;5019226;28;20025;-62
2023/06/18 10:08:49;;;;;;;11.50;7.57;;;26.50;79.30;;;;;;5028157;28;20041;-64
2023/06/18 10:11:17;;;;;;;10.95;7.70;;;26.40;79.10;;;;;;5027554;28;20033;-63
2023/06/18 10:13:58;;;;;;;10.90;8.43;;;26.40;79.50;;;;;;5006205;28;20089;-63
2023/06/18 10:16:30;;;;;;;11.20;8.73;;;26.40;79.60;;;;;;5012754;28;20081;-63
2023/06/18 10:19:21;;;;;;;10.63;8.68;;;26.30;79.10;;;;;;5021665;28;20037;-63
2023/06/18 10:21:57;;;;;;;10.60;8.40;;;26.30;79.50;;;;;;5021878;28;20563;-63
2023/06/18 10:24:32;;;;;;;10.77;8.68;;;26.30;79.60;;;;;;5027229;28;20113;-63
2023/06/18 10:26:58;;;;;;;11.88;8.35;;;26.30;79.50;;;;;;5026742;28;20491;-63
2023/06/18 10:29:24;;;;;;;10.60;8.73;;;26.20;79.20;;;;;;5020920;28;20044;-63
2023/06/18 10:31:51;;;;;;;11.52;8.35;;;26.20;78.80;;;;;;5014815;28;20042;-63
2023/06/18 10:34:17;;;;;;;9.43;8.27;;;26.20;77.70;;;;;;5026371;28;20044;-64
2023/06/18 10:36:44;;;;;;;9.90;7.70;;;26.20;77.30;;;;;;5029481;28;20037;-62
2023/06/18 10:39:11;;;;;;;11.13;8.05;;;26.20;76.80;;;;;;5020377;28;20052;-64
2023/06/18 10:41:36;;;;;;;11.88;7.80;;;26.20;76.60;;;;;;5008867;28;20128;-64
2023/06/18 10:44:02;;;;;;;9.98;7.68;;;26.10;77.30;;;;;;5023399;28;20128;-63
2023/06/18 10:46:33;;;;;;;10.38;8.27;;;26.20;77.00;;;;;;5018386;28;20061;-63
2023/06/18 10:49:16;;;;;;;12.80;7.50;;;26.20;77.20;;;;;;5019095;28;20038;-62
2023/06/18 10:51:51;;;;;;;12.10;7.88;;;26.40;78.10;;;;;;5003926;28;20056;-63
2023/06/18 10:54:22;;;;;;;8.70;7.63;;;26.50;77.60;;;;;;5018704;28;20494;-63
2023/06/18 10:56:53;;;;;;;8.65;7.65;;;26.70;77.10;;;;;;5024248;28;20590;-63
2023/06/18 10:59:33;;;;;;;12.43;7.85;;;26.90;77.20;;;;;;5024622;28;20042;-63
2023/06/18 11:02:00;;;;;;;9.02;7.25;;;27.20;77.30;;;;;;5015086;28;20033;-64
2023/06/18 11:04:33;;;;;;;9.60;7.05;;;27.50;77.10;;;;;;5021866;28;20038;-63
2023/06/18 11:07:19;;;;;;;9.65;7.40;;;27.70;73.40;;;;;;5019520;28;20055;-63
2023/06/18 11:10:03;;;;;;;11.30;7.40;;;27.90;70.30;;;;;;5016563;28;20570;-63
2023/06/18 11:12:33;;;;;;;9.43;7.38;;;28.10;70.00;;;;;;5016893;28;20120;-63
2023/06/18 11:15:18;;;;;;;10.77;7.22;;;28.10;69.90;;;;;;5000156;28;20050;-63
2023/06/18 11:17:50;;;;;;;8.05;7.07;;;28.20;67.60;;;;;;5001940;28;20046;-63
2023/06/18 11:20:17;;;;;;;8.10;6.80;;;28.10;67.60;;;;;;5021568;28;20521;-64
2023/06/18 11:22:44;;;;;;;11.50;8.18;;;28.30;67.90;;;;;;5027164;28;20052;-63
2023/06/18 11:25:12;;;;;;;9.48;7.28;;;28.40;68.00;;;;;;5019592;28;20030;-64
2023/06/18 11:27:42;;;;;;;9.40;7.43;;;28.50;68.40;;;;;;5025976;28;20036;-61
2023/06/18 11:30:10;;;;;;;10.37;7.73;;;28.50;68.40;;;;;;5009004;28;20034;-63
2023/06/18 11:32:36;;;;;;;8.70;7.30;;;28.50;68.00;;;;;;4994944;28;20037;-63
2023/06/18 11:35:04;;;;;;;10.20;8.00;;;28.50;68.20;;;;;;5024306;28;20038;-63
2023/06/18 11:37:30;;;;;;;9.02;7.75;;;28.40;68.10;;;;;;5021776;28;20030;-63
2023/06/18 11:39:56;;;;;;;9.32;7.57;;;28.40;68.50;;;;;;5026399;28;20084;-63
2023/06/18 11:42:26;;;;;;;9.55;7.72;;;28.40;68.80;;;;;;4999676;28;20476;-63
2023/06/18 11:44:57;;;;;;;9.27;7.88;;;28.40;68.60;;;;;;5009613;28;20038;-63
2023/06/18 11:47:23;;;;;;;11.32;8.18;;;28.50;68.60;;;;;;5022395;28;20045;-63
2023/06/18 11:49:51;;;;;;;9.63;7.30;;;28.70;68.40;;;;;;5027394;28;20112;-61
2023/06/18 11:52:22;;;;;;;10.63;8.00;;;28.90;68.30;;;;;;5007010;28;20049;-63
2023/06/18 11:54:48;;;;;;;11.45;7.25;;;29.10;68.00;;;;;;5025183;28;20381;-63
2023/06/18 11:57:15;;;;;;;8.43;7.40;;;29.30;67.10;;;;;;5026030;28;20479;-63
2023/06/18 11:59:42;;;;;;;10.50;7.45;;;29.40;67.30;;;;;;5029731;28;20048;-61
2023/06/18 12:02:13;;;;;;;11.48;7.60;;;29.60;67.30;;;;;;5026155;28;20034;-63
2023/06/18 12:04:40;;;;;;;8.60;7.70;;;29.70;66.90;;;;;;5030772;28;20029;-63
2023/06/18 12:07:06;;;;;;;8.38;6.80;;;29.90;66.70;;;;;;5027885;28;20069;-63
2023/06/18 12:09:33;;;;;;;9.02;7.20;;;29.90;66.30;;;;;;5012951;28;20509;-63
2023/06/18 12:12:11;;;;;;;9.68;7.63;;;29.90;65.70;;;;;;5021028;28;20060;-63
2023/06/18 12:14:55;;;;;;;8.10;7.20;;;30.00;64.60;;;;;;5016585;28;20042;-63
2023/06/18 12:17:37;;;;;;;8.23;7.43;;;30.00;64.50;;;;;;5022919;28;20579;-64
2023/06/18 12:20:13;;;;;;;8.52;7.63;;;30.00;64.30;;;;;;5000761;28;20052;-64
2023/06/18 12:22:40;;;;;;;8.63;7.10;;;30.10;64.50;;;;;;5020949;28;20072;-63
2023/06/18 12:25:06;;;;;;;8.93;8.02;;;30.10;64.60;;;;;;5032400;28;20052;-63
2023/06/18 12:27:34;;;;;;;8.32;7.43;;;30.10;64.00;;;;;;5021672;28;20029;-62
2023/06/18 12:30:02;;;;;;;11.27;7.50;;;30.20;64.00;;;;;;5029113;28;20040;-61
2023/06/18 12:32:28;;;;;;;9.70;7.85;;;30.20;64.00;;;;;;5001892;28;20069;-62